Time;durP1;ratioP1;P1;durP2;ratioP2;P2;SDS_P1;SDS_P2;PMS_P1;PMS_P2;Temp;Humidity;BMP_temperature;BMP_pressure;BME280_temperature;BME280_humidity;BME280_pressure;Samples;Min_cycle;Max_cycle;Signal;HPM_P1;HPM_P2
2021/05/23 00:02:00;;;;;;;0.17;0.17;;;;;;;8.41;69.20;100007.78;5034781;28;20060;-89
2021/05/23 00:04:34;;;;;;;0.20;0.20;;;;;;;8.39;69.76;100007.22;5033811;28;20057;-89
2021/05/23 00:07:07;;;;;;;0.20;0.20;;;;;;;8.27;71.38;99998.63;5033707;28;20060;-89
2021/05/23 00:09:35;;;;;;;0.20;0.20;;;;;;;8.36;68.99;100007.81;5035079;28;20061;-90
2021/05/23 00:12:26;;;;;;;0.20;0.20;;;;;;;8.24;69.44;100005.44;5034325;28;20480;-88
2021/05/23 00:14:54;;;;;;;0.20;0.20;;;;;;;8.42;69.37;100016.72;5048312;28;20056;-90
2021/05/23 00:17:27;;;;;;;0.13;0.13;;;;;;;8.28;71.63;100011.09;5054617;28;20060;-88
2021/05/23 00:20:01;;;;;;;0.20;0.20;;;;;;;8.29;70.35;100026.28;5054472;28;20053;-89
2021/05/23 00:22:29;;;;;;;0.20;0.20;;;;;;;8.31;71.18;100024.09;5053361;28;20056;-89
2021/05/23 00:24:57;;;;;;;0.20;0.20;;;;;;;8.28;71.10;100028.16;5053715;28;20061;-89
2021/05/23 00:27:29;;;;;;;0.20;0.20;;;;;;;8.38;70.42;100021.06;5051665;28;20053;-88
2021/05/23 00:29:57;;;;;;;;;;;;;;;8.41;69.00;100026.75;5034018;28;20054;-91
2021/05/23 00:32:25;;;;;;;0.10;0.10;;;;;;;8.36;71.12;100018.66;5033157;28;19921;-89
2021/05/23 00:34:52;;;;;;;0.20;0.20;;;;;;;8.31;70.42;100029.53;5034561;28;20052;-90
2021/05/23 00:37:55;;;;;;;0.20;0.20;;;;;;;8.29;69.83;100035.22;5033148;28;20053;-89
2021/05/23 00:40:24;;;;;;;0.20;0.20;;;;;;;8.28;69.16;100032.78;5033097;28;20052;-89
2021/05/23 00:42:58;;;;;;;0.20;0.20;;;;;;;8.31;69.85;100041.19;5032346;28;20049;-88
2021/05/23 00:45:26;;;;;;;0.20;0.20;;;;;;;8.28;70.31;100043.63;5045822;28;20044;-89
2021/05/23 00:47:59;;;;;;;0.20;0.20;;;;;;;8.05;70.12;99990.91;5052208;28;20057;-89
2021/05/23 00:50:32;;;;;;;0.20;0.20;;;;;;;8.16;70.55;100025.00;5054808;28;20051;-90
2021/05/23 00:53:06;;;;;;;0.20;0.20;;;;;;;8.28;70.67;100038.22;5067006;28;20048;-88
2021/05/23 01:00:07;;;;;;;0.20;0.20;;;;;;;8.25;69.88;100042.28;5040352;28;20037;-89
2021/05/23 01:02:47;;;;;;;0.17;0.17;;;;;;;8.21;70.22;100053.97;5033303;28;20053;-89
2021/05/23 01:05:21;;;;;;;0.20;0.20;;;;;;;8.16;71.31;100052.91;5033255;28;20060;-91
2021/05/23 01:07:55;;;;;;;0.10;0.10;;;;;;;8.14;71.04;100046.94;5032162;28;20057;-90
2021/05/23 01:10:51;;;;;;;0.20;0.20;;;;;;;8.10;71.73;100056.72;5033970;28;20041;-90
2021/05/23 01:13:52;;;;;;;0.20;0.20;;;;;;;8.18;70.88;100049.94;5053659;28;20374;-89
2021/05/23 01:16:30;;;;;;;0.32;0.22;;;;;;;8.06;71.70;100044.81;5052574;28;20056;-89
2021/05/23 01:19:02;;;;;;;0.10;0.10;;;;;;;8.20;70.72;100063.19;5052318;28;20497;-88
2021/05/23 01:21:38;;;;;;;0.10;0.10;;;;;;;8.17;70.08;100059.13;5053258;28;20051;-89
2021/05/23 01:24:10;;;;;;;0.20;0.20;;;;;;;8.21;71.27;100056.69;5053078;28;20056;-90
2021/05/23 01:26:52;;;;;;;0.20;0.20;;;;;;;8.09;71.32;100065.16;5052861;28;20053;-88
2021/05/23 01:29:21;;;;;;;0.20;0.20;;;;;;;8.11;72.21;100054.84;5052001;28;20045;-88
2021/05/23 01:31:55;;;;;;;0.10;0.10;;;;;;;8.15;71.07;100070.25;5051980;28;20413;-89
2021/05/23 01:34:23;;;;;;;0.20;0.20;;;;;;;8.10;71.47;100061.34;5051995;28;20059;-89
2021/05/23 01:36:54;;;;;;;0.20;0.20;;;;;;;8.10;72.54;100069.47;5048796;28;20057;-88
2021/05/23 01:39:27;;;;;;;0.20;0.20;;;;;;;8.16;71.50;100068.34;5032141;28;20485;-88
2021/05/23 01:41:56;;;;;;;;;;;;;;;8.15;71.36;100072.19;5033570;28;20049;-89
2021/05/23 01:44:25;;;;;;;0.20;0.20;;;;;;;7.99;72.75;100063.28;5032589;28;19921;-89
2021/05/23 01:46:58;;;;;;;0.20;0.20;;;;;;;8.05;69.92;100081.16;5033398;28;20037;-88
2021/05/23 01:50:23;;;;;;;0.20;0.20;;;;;;;8.07;69.70;100084.41;5031951;28;20041;-90
2021/05/23 01:54:01;;;;;;;0.13;0.13;;;;;;;8.07;70.96;100086.31;5039370;28;20656;-89
2021/05/23 01:57:25;;;;;;;0.20;0.20;;;;;;;8.03;73.03;100080.63;5051796;28;20041;-89
2021/05/23 01:59:59;;;;;;;0.15;0.15;;;;;;;8.07;70.37;100083.59;5031947;28;20049;-89
2021/05/23 02:02:35;;;;;;;0.20;0.20;;;;;;;8.05;70.93;100078.47;5039294;28;20076;-88
2021/05/23 02:05:10;;;;;;;0.10;0.10;;;;;;;8.05;70.02;100074.91;5031661;28;20053;-89
2021/05/23 02:07:48;;;;;;;0.10;0.10;;;;;;;7.97;71.87;100077.13;5065585;28;20048;-89
2021/05/23 02:10:21;;;;;;;0.28;0.28;;;;;;;7.98;73.34;100077.91;5071679;28;20071;-89
2021/05/23 02:12:55;;;;;;;0.20;0.20;;;;;;;7.96;71.55;100066.56;5071521;28;20052;-89
2021/05/23 02:15:24;;;;;;;0.20;0.20;;;;;;;7.97;72.37;100065.47;5071683;28;20075;-89
2021/05/23 02:17:57;;;;;;;0.20;0.20;;;;;;;7.98;71.25;100076.03;5071432;28;20488;-88
2021/05/23 02:20:31;;;;;;;0.20;0.20;;;;;;;7.89;71.53;100057.94;5071619;28;20055;-89
2021/05/23 02:23:05;;;;;;;0.13;0.13;;;;;;;7.90;72.44;100079.31;5072439;28;20377;-88
2021/05/23 02:25:35;;;;;;;0.30;0.30;;;;;;;7.92;73.02;100082.56;5072543;28;20045;-90
2021/05/23 02:28:06;;;;;;;0.15;0.15;;;;;;;7.96;72.39;100080.91;5070961;28;20468;-89
2021/05/23 02:30:42;;;;;;;0.10;0.10;;;;;;;7.92;72.71;100087.16;5072663;28;20481;-89
2021/05/23 02:33:12;;;;;;;0.20;0.20;;;;;;;7.65;71.09;100045.00;5072300;28;20047;-88
2021/05/23 02:35:47;;;;;;;0.20;0.20;;;;;;;7.91;70.84;100080.94;5049090;28;20049;-89
2021/05/23 02:38:16;;;;;;;0.20;0.20;;;;;;;7.89;72.73;100083.13;5038985;28;20416;-88
2021/05/23 02:40:45;;;;;;;0.10;0.10;;;;;;;7.95;71.79;100090.13;5032346;28;20042;-89
2021/05/23 02:43:14;;;;;;;0.15;0.15;;;;;;;8.04;71.24;100087.66;5056365;28;20060;-89
2021/05/23 02:45:51;;;;;;;0.10;0.10;;;;;;;7.89;70.86;100071.47;5042174;28;20053;-90
2021/05/23 02:48:24;;;;;;;0.20;0.20;;;;;;;7.96;72.33;100090.94;5031115;28;20041;-89
2021/05/23 02:50:53;;;;;;;0.20;0.20;;;;;;;7.85;71.90;100087.47;5037053;28;20045;-91
2021/05/23 02:53:27;;;;;;;0.20;0.20;;;;;;;7.82;71.09;100090.72;5040073;28;20045;-89
2021/05/23 02:55:55;;;;;;;0.20;0.20;;;;;;;7.89;70.86;100098.56;5063571;28;20052;-90
2021/05/23 02:58:28;;;;;;;0.30;0.30;;;;;;;7.85;71.61;100101.00;5044726;28;20048;-89
2021/05/23 03:00:57;;;;;;;0.28;0.28;;;;;;;7.86;73.37;100102.63;5041535;28;20064;-90
2021/05/23 03:03:30;;;;;;;0.20;0.20;;;;;;;7.82;70.84;100113.19;5060745;28;20045;-89
2021/05/23 03:06:03;;;;;;;0.20;0.20;;;;;;;7.78;71.34;100120.25;5059226;28;20385;-89
2021/05/23 03:08:35;;;;;;;0.20;0.20;;;;;;;7.75;72.43;100115.41;5054171;28;20391;-89
2021/05/23 03:11:03;;;;;;;0.20;0.20;;;;;;;7.56;73.94;100092.69;5053861;28;20045;-88
2021/05/23 03:18:03;;;;;;;0.10;0.10;;;;;;;7.68;74.53;100125.72;5039302;28;20045;-89
2021/05/23 03:20:38;;;;;;;0.20;0.20;;;;;;;7.66;72.36;100136.81;5031546;28;20305;-90
2021/05/23 03:23:07;;;;;;;0.20;0.20;;;;;;;7.75;73.07;100141.69;5030974;28;20061;-89
2021/05/23 03:25:35;;;;;;;0.20;0.20;;;;;;;7.77;71.20;100143.00;5031288;28;20056;-90
2021/05/23 03:28:08;;;;;;;0.20;0.20;;;;;;;7.68;72.26;100135.72;5047431;28;20483;-89
2021/05/23 03:30:43;;;;;;;0.20;0.20;;;;;;;7.82;72.51;100139.50;5035707;28;20045;-89
2021/05/23 03:33:17;;;;;;;0.20;0.20;;;;;;;7.69;73.36;100140.84;5033993;28;20057;-88
2021/05/23 03:35:49;;;;;;;0.20;0.20;;;;;;;7.65;73.85;100145.19;5048472;28;20397;-89
2021/05/23 03:38:17;;;;;;;0.20;0.20;;;;;;;7.57;73.93;100146.56;5054319;28;20057;-89
2021/05/23 03:40:50;;;;;;;0.20;0.20;;;;;;;7.68;73.26;100152.78;5054445;28;20048;-87
2021/05/23 03:43:17;;;;;;;;;;;;;;;7.65;73.64;100156.84;5055726;28;20048;-89
2021/05/23 03:45:50;;;;;;;0.10;0.10;;;;;;;7.62;73.73;100159.28;5055505;28;20276;-88
2021/05/23 03:48:27;;;;;;;0.20;0.20;;;;;;;7.39;73.80;100145.22;5053995;28;20065;-90
2021/05/23 03:51:00;;;;;;;0.20;0.20;;;;;;;7.28;75.69;100149.03;5054073;28;20389;-90
2021/05/23 03:53:32;;;;;;;0.17;0.17;;;;;;;7.32;75.48;100155.53;5053603;28;20799;-89
2021/05/23 03:56:00;;;;;;;0.20;0.20;;;;;;;7.22;76.33;100160.94;5053829;28;20053;-89
2021/05/23 03:58:33;;;;;;;0.20;0.20;;;;;;;7.43;75.44;100169.84;5053920;28;20045;-90
2021/05/23 04:01:05;;;;;;;0.20;0.20;;;;;;;7.36;76.15;100159.31;5054061;28;20048;-90
2021/05/23 04:03:34;;;;;;;0.20;0.20;;;;;;;7.41;75.91;100167.41;5054998;28;20049;-90
2021/05/23 04:06:07;;;;;;;0.17;0.17;;;;;;;7.47;76.26;100168.22;5053629;28;20049;-88
2021/05/23 04:08:40;;;;;;;0.13;0.13;;;;;;;7.54;76.89;100181.50;5053664;28;20064;-89
2021/05/23 04:11:11;;;;;;;;;;;;;;;7.44;76.25;100176.91;5053793;28;20049;-88
2021/05/23 04:13:39;;;;;;;0.20;0.20;;;;;;;7.35;76.12;100156.84;5035066;28;19928;-89
2021/05/23 04:16:07;;;;;;;0.20;0.20;;;;;;;7.26;75.47;100146.56;5033762;28;20053;-89
2021/05/23 04:19:31;;;;;;;0.20;0.20;;;;;;;7.52;76.02;100191.81;5033275;28;20501;-89
2021/05/23 04:22:05;;;;;;;0.20;0.20;;;;;;;7.53;74.74;100188.81;5032733;28;20045;-88
2021/05/23 04:24:39;;;;;;;0.20;0.20;;;;;;;7.55;75.57;100186.63;5036922;28;20045;-89
2021/05/23 04:27:12;;;;;;;0.20;0.20;;;;;;;7.42;74.58;100171.75;5033157;28;20050;-89
2021/05/23 04:29:45;;;;;;;0.20;0.20;;;;;;;7.38;75.33;100170.69;5034560;28;20056;-89
2021/05/23 04:32:29;;;;;;;0.20;0.20;;;;;;;7.66;74.00;100190.97;5034239;28;20050;-88
2021/05/23 04:35:02;;;;;;;0.20;0.20;;;;;;;7.71;73.90;100205.59;5033785;28;20045;-90
2021/05/23 04:37:31;;;;;;;0.20;0.20;;;;;;;7.54;75.88;100187.75;5034710;28;20581;-88
2021/05/23 04:40:05;;;;;;;0.20;0.20;;;;;;;7.82;75.39;100209.91;5033560;28;20053;-90
2021/05/23 04:42:33;;;;;;;0.20;0.20;;;;;;;7.83;73.42;100201.53;5033495;28;20068;-90
2021/05/23 04:45:07;;;;;;;0.20;0.20;;;;;;;7.89;73.46;100213.16;5034530;28;20038;-89
2021/05/23 04:48:03;;;;;;;0.20;0.20;;;;;;;7.94;72.67;100217.75;5041611;28;20049;-88
2021/05/23 04:50:31;;;;;;;0.20;0.20;;;;;;;8.04;74.50;100216.91;5044577;28;20387;-89
2021/05/23 04:53:00;;;;;;;0.20;0.20;;;;;;;8.05;73.76;100222.09;5061597;28;20049;-89
2021/05/23 04:55:33;;;;;;;0.10;0.10;;;;;;;7.68;73.02;100147.38;5039991;28;20418;-89
2021/05/23 04:58:05;;;;;;;0.20;0.20;;;;;;;8.02;72.44;100211.78;5044483;28;20053;-90
2021/05/23 05:00:38;;;;;;;0.20;0.20;;;;;;;8.08;72.75;100223.41;5057339;28;20043;-89
2021/05/23 05:03:11;;;;;;;0.20;0.20;;;;;;;8.05;73.51;100208.53;5069615;28;20060;-89
2021/05/23 05:05:43;;;;;;;0.28;0.28;;;;;;;8.07;73.50;100225.31;5054756;28;20049;-87
2021/05/23 05:08:20;;;;;;;0.20;0.20;;;;;;;9.32;68.38;100224.53;5053004;28;20045;-88
2021/05/23 05:10:48;;;;;;;0.30;0.30;;;;;;;11.23;62.13;100215.09;5052569;28;20056;-90
2021/05/23 05:13:21;;;;;;;0.30;0.30;;;;;;;12.16;59.31;100212.75;5048121;28;20048;-88
2021/05/23 05:15:54;;;;;;;0.20;0.20;;;;;;;11.42;60.61;100219.72;5072210;28;20063;-90
2021/05/23 05:18:24;;;;;;;0.10;0.10;;;;;;;10.27;65.00;100215.25;5069471;28;20053;-88
2021/05/23 05:20:56;;;;;;;0.20;0.20;;;;;;;9.81;66.16;100230.91;5061542;28;20045;-89
2021/05/23 05:23:35;;;;;;;0.30;0.30;;;;;;;12.02;60.85;100232.63;5068950;28;20052;-89
2021/05/23 05:26:08;;;;;;;0.30;0.30;;;;;;;12.65;57.98;100235.00;5073475;28;20040;-90
2021/05/23 05:28:41;;;;;;;0.20;0.20;;;;;;;13.11;56.61;100234.00;5054668;28;20068;-88
2021/05/23 05:31:19;;;;;;;0.20;0.20;;;;;;;12.12;59.62;100245.28;5041609;28;20057;-89
2021/05/23 05:33:52;;;;;;;0.10;0.10;;;;;;;10.71;63.82;100260.47;5042864;28;20152;-89
2021/05/23 05:36:28;;;;;;;0.20;0.20;;;;;;;9.93;64.78;100254.19;5054133;28;20056;-88
2021/05/23 05:39:02;;;;;;;0.30;0.30;;;;;;;9.35;67.25;100247.59;5032411;28;20045;-90
2021/05/23 05:41:35;;;;;;;0.15;0.15;;;;;;;9.07;67.96;100268.91;5031973;28;20064;-88
2021/05/23 05:44:08;;;;;;;0.20;0.20;;;;;;;8.87;69.60;100274.47;5051242;28;20633;-89
2021/05/23 05:46:41;;;;;;;0.20;0.20;;;;;;;8.93;69.12;100271.44;5047877;28;20401;-90
2021/05/23 05:49:18;;;;;;;0.20;0.20;;;;;;;9.32;68.68;100283.44;5062922;28;20056;-90
2021/05/23 05:51:50;;;;;;;0.20;0.20;;;;;;;9.39;68.90;100272.25;5037624;28;20045;-89
2021/05/23 05:54:42;;;;;;;0.20;0.20;;;;;;;9.31;69.26;100276.41;5047513;28;20044;-91
2021/05/23 05:57:15;;;;;;;0.10;0.10;;;;;;;8.95;67.52;100273.84;5031210;28;20049;-89
2021/05/23 05:59:48;;;;;;;0.10;0.10;;;;;;;9.14;68.29;100280.31;5042052;28;20492;-89
2021/05/23 06:02:20;;;;;;;0.20;0.20;;;;;;;9.40;69.59;100276.63;5033690;28;20049;-89
2021/05/23 06:04:53;;;;;;;0.20;0.20;;;;;;;9.51;68.52;100270.00;5035522;28;20044;-88
2021/05/23 06:08:21;;;;;;;0.20;0.20;;;;;;;9.19;64.42;100274.03;5035126;28;20060;-90
2021/05/23 06:10:55;;;;;;;0.20;0.20;;;;;;;9.57;68.64;100284.38;5043561;28;20048;-89
2021/05/23 06:13:28;;;;;;;0.20;0.20;;;;;;;9.63;65.75;100283.25;5034977;28;20401;-89
2021/05/23 06:15:55;;;;;;;0.20;0.20;;;;;;;9.76;65.46;100284.50;5037014;28;20057;-89
2021/05/23 06:19:25;;;;;;;0.20;0.20;;;;;;;9.85;64.92;100288.25;5041571;28;20049;-89
2021/05/23 06:21:52;;;;;;;0.20;0.20;;;;;;;9.85;63.94;100304.53;5038257;28;20053;-92
2021/05/23 06:24:20;;;;;;;0.20;0.20;;;;;;;9.29;65.32;100230.50;5043416;28;20048;-88
2021/05/23 06:27:30;;;;;;;0.20;0.20;;;;;;;10.01;64.53;100316.91;5041724;28;20049;-90
2021/05/23 06:30:05;;;;;;;0.30;0.30;;;;;;;9.82;65.96;100316.00;5038281;28;20551;-88
2021/05/23 06:32:38;;;;;;;0.20;0.20;;;;;;;9.76;65.97;100327.97;5050903;28;20057;-89
2021/05/23 06:35:11;;;;;;;0.20;0.20;;;;;;;9.69;66.16;100325.56;5039670;28;20060;-90
2021/05/23 06:37:45;;;;;;;0.20;0.20;;;;;;;9.89;66.55;100327.34;5047952;28;20056;-90
2021/05/23 06:40:18;;;;;;;0.20;0.20;;;;;;;9.77;62.49;100319.53;5041634;28;20065;-89
2021/05/23 06:42:51;;;;;;;0.20;0.20;;;;;;;9.95;63.48;100314.53;5045994;28;20049;-88
2021/05/23 06:45:24;;;;;;;0.20;0.20;;;;;;;10.08;65.98;100329.34;5047509;28;20052;-89
2021/05/23 06:47:52;;;;;;;0.20;0.20;;;;;;;9.98;65.00;100297.63;5039778;28;20053;-88
2021/05/23 06:50:25;;;;;;;0.20;0.20;;;;;;;9.93;62.62;100328.41;5034481;28;20042;-88
2021/05/23 06:52:57;;;;;;;0.20;0.20;;;;;;;9.71;61.99;100328.84;5031169;28;20053;-87
2021/05/23 06:55:32;;;;;;;0.30;0.30;;;;;;;10.07;65.16;100349.47;5031697;28;20065;-87
2021/05/23 06:58:00;;;;;;;0.20;0.20;;;;;;;10.08;61.80;100354.66;5048041;28;20411;-88
2021/05/23 07:04:12;;;;;;;0.20;0.20;;;;;;;10.24;62.58;100357.25;5035927;28;20045;-87
2021/05/23 07:06:39;;;;;;;;;;;;;;;10.21;60.25;100356.69;5055014;28;20409;-89
2021/05/23 07:09:20;;;;;;;0.20;0.20;;;;;;;10.26;61.53;100358.59;5042112;28;19920;-87
2021/05/23 07:12:18;;;;;;;0.20;0.20;;;;;;;10.45;64.06;100353.25;5038820;28;20053;-87
2021/05/23 07:14:51;;;;;;;0.20;0.20;;;;;;;10.87;64.62;100354.44;5039342;28;20053;-87
2021/05/23 07:17:19;;;;;;;0.20;0.20;;;;;;;10.52;62.80;100342.03;5043102;28;20064;-88
2021/05/23 07:19:46;;;;;;;;;;;;;;;10.80;61.22;100356.72;5054870;28;20040;-89
2021/05/23 07:22:21;;;;;;;0.20;0.20;;;;;;;10.98;58.52;100359.75;5049567;28;20395;-87
2021/05/23 07:24:53;;;;;;;0.25;0.25;;;;;;;11.03;59.92;100365.16;5046963;28;20060;-88
2021/05/23 07:27:52;;;;;;;0.28;0.28;;;;;;;11.48;62.92;100373.84;5047700;28;20046;-87
2021/05/23 07:30:23;;;;;;;0.10;0.10;;;;;;;11.64;59.01;100373.63;5035252;28;20056;-87
2021/05/23 07:32:52;;;;;;;0.20;0.20;;;;;;;11.88;61.75;100362.66;5053765;28;20127;-88
2021/05/23 07:35:27;;;;;;;0.20;0.20;;;;;;;11.88;56.05;100379.03;5053432;28;20063;-88
2021/05/23 07:38:00;;;;;;;0.20;0.20;;;;;;;11.73;58.96;100396.41;5046694;28;20105;-87
2021/05/23 07:40:32;;;;;;;0.20;0.20;;;;;;;11.41;58.79;100389.75;5043246;28;20053;-88
2021/05/23 07:43:00;;;;;;;;;;;;;;;11.67;58.07;100392.94;5054367;28;20040;-88
2021/05/23 07:45:45;;;;;;;0.30;0.30;;;;;;;11.51;57.28;100396.97;5045658;28;19920;-88
2021/05/23 07:48:17;;;;;;;0.20;0.20;;;;;;;11.20;59.56;100409.09;5043076;28;20508;-88
2021/05/23 07:50:50;;;;;;;0.20;0.20;;;;;;;11.28;58.41;100409.53;5034939;28;20714;-87
2021/05/23 07:53:23;;;;;;;0.20;0.20;;;;;;;11.11;60.39;100408.09;5039725;28;20045;-88
2021/05/23 07:55:51;;;;;;;0.20;0.20;;;;;;;11.10;59.80;100397.50;5048616;28;20057;-88
2021/05/23 07:58:24;;;;;;;0.25;0.25;;;;;;;11.32;60.48;100414.09;5052212;28;20045;-87
2021/05/23 08:00:57;;;;;;;0.35;0.35;;;;;;;11.18;58.30;100405.81;5041949;28;20061;-88
2021/05/23 08:03:30;;;;;;;0.20;0.20;;;;;;;11.55;59.00;100415.19;5052063;28;20473;-88
2021/05/23 08:05:57;;;;;;;;;;;;;;;11.86;56.83;100398.41;5045458;28;20045;-88
2021/05/23 08:08:25;;;;;;;;;;;;;;;11.70;58.28;100411.44;5042841;28;19921;-86
2021/05/23 08:10:52;;;;;;;0.20;0.20;;;;;;;11.40;55.22;100404.47;5040754;28;20385;-88
2021/05/23 08:13:26;;;;;;;0.20;0.20;;;;;;;11.66;57.44;100418.56;5052767;28;20072;-88
2021/05/23 08:16:01;;;;;;;1.27;0.30;;;;;;;11.35;57.33;100390.91;5049305;28;20070;-88
2021/05/23 08:18:34;;;;;;;0.10;0.10;;;;;;;11.56;58.25;100411.34;5038458;28;20054;-87
2021/05/23 08:21:04;;;;;;;0.20;0.20;;;;;;;12.04;57.01;100410.44;5058149;28;20041;-88
2021/05/23 08:23:36;;;;;;;0.20;0.20;;;;;;;12.24;55.27;100427.59;5055643;28;20043;-90
2021/05/23 08:26:09;;;;;;;0.20;0.20;;;;;;;12.02;56.02;100425.47;5051381;28;20457;-89
2021/05/23 08:28:42;;;;;;;0.20;0.20;;;;;;;12.07;54.89;100423.47;5033109;28;20060;-89
2021/05/23 08:31:16;;;;;;;0.30;0.30;;;;;;;12.21;53.86;100422.75;5032950;28;20048;-90
2021/05/23 08:33:44;;;;;;;0.20;0.20;;;;;;;12.13;53.68;100420.69;5040201;28;20048;-90
2021/05/23 08:36:19;;;;;;;0.25;0.25;;;;;;;12.42;53.99;100445.84;5054663;28;20050;-89
2021/05/23 08:38:53;;;;;;;0.20;0.20;;;;;;;12.57;53.62;100452.16;5044138;28;20037;-90
2021/05/23 08:41:26;;;;;;;0.20;0.20;;;;;;;12.90;53.23;100443.97;5053154;28;20060;-90
2021/05/23 08:43:59;;;;;;;0.10;0.10;;;;;;;12.76;54.71;100457.59;5044344;28;20397;-89
2021/05/23 08:46:33;;;;;;;0.20;0.20;;;;;;;12.81;51.40;100453.94;5039269;28;20099;-90
2021/05/23 08:49:12;;;;;;;0.20;0.20;;;;;;;12.47;52.58;100450.44;5033391;28;20492;-88
2021/05/23 08:51:45;;;;;;;0.20;0.20;;;;;;;12.51;56.44;100456.06;5036630;28;20049;-87
2021/05/23 08:54:14;;;;;;;0.40;0.40;;;;;;;12.47;51.65;100453.16;5038481;28;20056;-87
2021/05/23 08:56:42;;;;;;;0.20;0.20;;;;;;;12.94;55.22;100461.38;5035777;28;20049;-89
2021/05/23 08:59:11;;;;;;;0.30;0.30;;;;;;;12.79;51.19;100464.34;5038697;28;20077;-89
2021/05/23 09:01:45;;;;;;;0.20;0.20;;;;;;;12.65;51.91;100477.97;5044300;28;20056;-88
2021/05/23 09:04:20;;;;;;;0.20;0.20;;;;;;;12.32;51.18;100480.66;5044416;28;20037;-88
2021/05/23 09:07:00;;;;;;;0.20;0.20;;;;;;;11.90;53.11;100480.41;5046492;28;20037;-88
2021/05/23 09:09:42;;;;;;;0.20;0.20;;;;;;;11.62;55.14;100484.88;5045526;28;20061;-89
2021/05/23 09:12:17;;;;;;;0.20;0.20;;;;;;;11.57;54.52;100466.66;5058743;28;20043;-88
2021/05/23 09:14:52;;;;;;;0.10;0.10;;;;;;;11.57;54.98;100486.56;5036013;28;20053;-88
2021/05/23 09:17:27;;;;;;;0.20;0.20;;;;;;;11.58;55.82;100488.16;5040051;28;20064;-88
2021/05/23 09:20:00;;;;;;;0.20;0.20;;;;;;;11.64;54.39;100480.78;5046120;28;20045;-88
2021/05/23 09:22:28;;;;;;;;;;;;;;;12.66;56.42;100482.31;5032118;28;20497;-88
2021/05/23 09:25:05;;;;;;;0.30;0.20;;;;;;;13.02;54.46;100481.69;5049463;28;19932;-88
2021/05/23 09:27:34;;;;;;;0.20;0.20;;;;;;;12.96;54.52;100480.97;5031607;28;20045;-89
2021/05/23 09:30:16;;;;;;;0.20;0.20;;;;;;;12.67;53.49;100487.47;5040961;28;20049;-87
2021/05/23 09:32:52;;;;;;;0.20;0.20;;;;;;;12.85;58.32;100474.88;5034115;28;20045;-86
2021/05/23 09:35:26;;;;;;;0.20;0.20;;;;;;;12.75;54.89;100484.06;5037920;28;20041;-87
2021/05/23 09:38:02;;;;;;;0.20;0.20;;;;;;;12.49;53.35;100497.31;5034300;28;20045;-88
2021/05/23 09:40:36;;;;;;;0.20;0.20;;;;;;;12.28;57.40;100499.56;5035315;28;20401;-87
2021/05/23 09:43:11;;;;;;;0.20;0.20;;;;;;;12.49;54.92;100505.50;5038442;28;20029;-88
2021/05/23 09:45:42;;;;;;;0.20;0.20;;;;;;;12.35;54.33;100501.91;5042906;28;20064;-88
2021/05/23 09:48:23;;;;;;;0.25;0.25;;;;;;;12.19;54.97;100512.22;5040277;28;20041;-88
2021/05/23 09:50:57;;;;;;;0.17;0.17;;;;;;;12.20;55.06;100509.22;5031187;28;20056;-87
2021/05/23 09:53:32;;;;;;;0.20;0.20;;;;;;;12.20;56.85;100500.22;5035572;28;20409;-88
2021/05/23 09:56:03;;;;;;;0.20;0.20;;;;;;;12.16;55.51;100515.56;5039300;28;20045;-89
2021/05/23 09:58:38;;;;;;;0.20;0.20;;;;;;;12.40;57.11;100518.19;5039883;28;20880;-85
2021/05/23 10:01:23;;;;;;;0.20;0.20;;;;;;;12.37;56.04;100519.63;5047281;28;20060;-87
2021/05/23 10:03:53;;;;;;;0.20;0.20;;;;;;;12.28;54.36;100515.94;5047511;28;20044;-87
2021/05/23 10:06:27;;;;;;;0.10;0.10;;;;;;;12.29;54.09;100516.72;5045073;28;20053;-88
2021/05/23 10:09:01;;;;;;;0.20;0.20;;;;;;;12.14;53.45;100528.66;5044580;28;20060;-87
2021/05/23 10:11:54;;;;;;;0.10;0.10;;;;;;;12.34;56.21;100539.28;5045500;28;20614;-86
2021/05/23 10:14:28;;;;;;;0.32;0.30;;;;;;;12.46;54.13;100536.13;5042317;28;20424;-86
2021/05/23 10:17:03;;;;;;;0.20;0.20;;;;;;;12.80;55.57;100529.59;5042766;28;20084;-86
2021/05/23 10:19:37;;;;;;;0.20;0.20;;;;;;;12.69;52.11;100541.78;5046279;28;20056;-86
2021/05/23 10:22:09;;;;;;;0.15;0.15;;;;;;;12.46;53.20;100540.78;5047653;28;20055;-87
2021/05/23 10:24:47;;;;;;;0.20;0.20;;;;;;;12.45;55.03;100542.69;5042765;28;20045;-86
2021/05/23 10:27:23;;;;;;;0.20;0.20;;;;;;;12.37;53.27;100543.34;5044597;28;20065;-84
2021/05/23 10:29:58;;;;;;;0.20;0.20;;;;;;;12.89;52.96;100554.31;5044827;28;20045;-87
2021/05/23 10:32:33;;;;;;;0.20;0.20;;;;;;;13.17;57.08;100551.66;5044327;28;20057;-85
2021/05/23 10:35:14;;;;;;;0.20;0.20;;;;;;;12.94;52.10;100554.22;5041781;28;20042;-88
2021/05/23 10:37:49;;;;;;;0.20;0.20;;;;;;;13.26;55.96;100538.91;5048194;28;20056;-85
2021/05/23 10:40:25;;;;;;;0.20;0.20;;;;;;;13.32;55.21;100558.75;5049777;28;20057;-86
2021/05/23 10:42:59;;;;;;;0.20;0.20;;;;;;;12.97;53.05;100555.53;5050871;28;20428;-89
2021/05/23 10:45:34;;;;;;;0.20;0.20;;;;;;;12.82;52.78;100557.41;5050673;28;20657;-89
2021/05/23 10:48:12;;;;;;;0.20;0.20;;;;;;;12.76;53.65;100561.34;5050651;28;20037;-87
2021/05/23 10:50:48;;;;;;;0.20;0.20;;;;;;;13.29;52.49;100553.91;5044033;28;20045;-86
2021/05/23 10:53:22;;;;;;;0.20;0.20;;;;;;;13.06;51.11;100568.22;5046073;28;20053;-85
2021/05/23 10:55:55;;;;;;;0.20;0.20;;;;;;;13.23;50.71;100564.91;5045296;28;20053;-88
2021/05/23 10:58:29;;;;;;;0.20;0.20;;;;;;;12.74;51.97;100566.28;5046549;28;20048;-88
2021/05/23 11:01:05;;;;;;;0.20;0.20;;;;;;;12.66;52.88;100575.16;5043657;28;20045;-85
2021/05/23 11:03:38;;;;;;;0.20;0.20;;;;;;;12.46;55.03;100573.53;5047479;28;20824;-85
2021/05/23 11:06:21;;;;;;;0.20;0.20;;;;;;;12.47;57.36;100573.25;5047082;28;20056;-85
2021/05/23 11:08:54;;;;;;;0.20;0.20;;;;;;;12.33;54.09;100581.34;5055471;28;20048;-87
2021/05/23 11:11:26;;;;;;;0.20;0.20;;;;;;;12.28;53.86;100581.41;5049886;28;20064;-85
2021/05/23 11:13:55;;;;;;;;;;;;;;;12.29;53.39;100577.59;5046500;28;20508;-87
2021/05/23 11:16:31;;;;;;;0.20;0.20;;;;;;;12.99;54.91;100577.91;5045126;28;20721;-85
2021/05/23 11:19:04;;;;;;;0.20;0.20;;;;;;;13.54;54.20;100580.78;5047820;28;20053;-84
2021/05/23 11:21:41;;;;;;;0.20;0.20;;;;;;;13.52;51.83;100571.25;5053065;28;20053;-87
2021/05/23 11:24:25;;;;;;;;;;;;;;;13.85;51.58;100572.00;5048034;28;20056;-85
2021/05/23 11:27:09;;;;;;;0.20;0.20;;;;;;;13.70;50.71;100569.53;5048318;28;19924;-84
2021/05/23 11:29:49;;;;;;;0.20;0.20;;;;;;;14.01;50.84;100572.47;5049350;28;20048;-84
2021/05/23 11:32:22;;;;;;;0.20;0.20;;;;;;;14.49;50.15;100578.59;5049289;28;20052;-87
2021/05/23 11:34:54;;;;;;;0.40;0.30;;;;;;;13.98;53.09;100570.38;5051156;28;20047;-84
2021/05/23 11:37:37;;;;;;;0.20;0.20;;;;;;;13.15;53.16;100578.47;5049772;28;20615;-85
2021/05/23 11:40:11;;;;;;;0.20;0.20;;;;;;;13.78;54.38;100580.59;5050400;28;20064;-86
2021/05/23 11:42:43;;;;;;;0.17;0.17;;;;;;;14.08;55.68;100572.06;5048571;28;20488;-87
2021/05/23 11:45:22;;;;;;;0.10;0.10;;;;;;;13.80;50.45;100571.28;5048043;28;20501;-85
2021/05/23 11:47:55;;;;;;;0.10;0.10;;;;;;;13.53;53.61;100583.81;5043534;28;20516;-88
2021/05/23 11:50:29;;;;;;;0.10;0.10;;;;;;;13.35;53.46;100575.38;5048400;28;20052;-87
2021/05/23 11:53:02;;;;;;;0.20;0.20;;;;;;;12.94;51.36;100565.16;5044735;28;20452;-86
2021/05/23 11:55:31;;;;;;;0.20;0.20;;;;;;;13.32;51.29;100591.56;5047499;28;20056;-91
2021/05/23 11:58:06;;;;;;;0.20;0.20;;;;;;;13.97;54.48;100579.69;5043307;28;20052;-86
2021/05/23 12:00:35;;;;;;;0.20;0.20;;;;;;;14.20;48.53;100577.81;5044453;28;20060;-88
2021/05/23 12:03:08;;;;;;;0.13;0.13;;;;;;;14.26;49.93;100570.31;5048333;28;20065;-87
2021/05/23 12:05:43;;;;;;;0.10;0.10;;;;;;;14.39;47.35;100577.69;5047765;28;20055;-86
2021/05/23 12:08:19;;;;;;;0.10;0.10;;;;;;;14.17;48.30;100570.25;5048887;28;20060;-87
2021/05/23 12:10:59;;;;;;;0.17;0.17;;;;;;;13.64;48.93;100584.44;5045918;28;20044;-88
2021/05/23 12:13:39;;;;;;;0.20;0.20;;;;;;;13.53;53.01;100589.28;5046251;28;20060;-88
2021/05/23 12:16:14;;;;;;;0.15;0.15;;;;;;;13.40;50.38;100601.84;5048191;28;20053;-89
2021/05/23 12:18:51;;;;;;;0.10;0.10;;;;;;;13.04;50.60;100602.41;5049943;28;20052;-87
2021/05/23 12:21:29;;;;;;;0.20;0.20;;;;;;;13.17;52.32;100601.63;5043947;28;20053;-88